sensor_id;sensor_type;location;lat;lon;timestamp;P1;durP1;ratioP1;P2;durP2;ratioP2
24681;SDS011;12802;53.390;-2.328;2022-11-20T00:03:33;8.07;;;3.63;;
24681;SDS011;12802;53.390;-2.328;2022-11-20T00:06:03;6.57;;;3.13;;
24681;SDS011;12802;53.390;-2.328;2022-11-20T00:08:30;8.95;;;3.10;;
24681;SDS011;12802;53.390;-2.328;2022-11-20T00:10:56;11.40;;;3.70;;
24681;SDS011;12802;53.390;-2.328;2022-11-20T00:13:22;11.27;;;3.28;;
24681;SDS011;12802;53.390;-2.328;2022-11-20T00:15:48;12.98;;;3.78;;
24681;SDS011;12802;53.390;-2.328;2022-11-20T00:18:21;10.57;;;3.05;;
24681;SDS011;12802;53.390;-2.328;2022-11-20T00:20:46;5.75;;;2.63;;
24681;SDS011;12802;53.390;-2.328;2022-11-20T00:23:12;6.88;;;3.33;;
24681;SDS011;12802;53.390;-2.328;2022-11-20T00:25:38;8.55;;;2.92;;
24681;SDS011;12802;53.390;-2.328;2022-11-20T00:28:04;6.20;;;3.00;;
24681;SDS011;12802;53.390;-2.328;2022-11-20T00:30:29;9.68;;;4.05;;
24681;SDS011;12802;53.390;-2.328;2022-11-20T00:32:56;4.68;;;2.72;;
24681;SDS011;12802;53.390;-2.328;2022-11-20T00:35:22;7.85;;;3.00;;
24681;SDS011;12802;53.390;-2.328;2022-11-20T00:37:48;6.03;;;3.15;;
24681;SDS011;12802;53.390;-2.328;2022-11-20T00:40:14;6.20;;;2.60;;
24681;SDS011;12802;53.390;-2.328;2022-11-20T00:42:39;10.90;;;3.47;;
24681;SDS011;12802;53.390;-2.328;2022-11-20T00:45:05;7.38;;;2.83;;
24681;SDS011;12802;53.390;-2.328;2022-11-20T00:47:32;5.82;;;2.92;;
24681;SDS011;12802;53.390;-2.328;2022-11-20T00:49:57;9.55;;;3.20;;
24681;SDS011;12802;53.390;-2.328;2022-11-20T00:52:23;12.85;;;3.60;;
24681;SDS011;12802;53.390;-2.328;2022-11-20T00:54:49;6.55;;;3.03;;
24681;SDS011;12802;53.390;-2.328;2022-11-20T00:57:14;7.60;;;2.85;;
24681;SDS011;12802;53.390;-2.328;2022-11-20T00:59:40;7.53;;;3.45;;
24681;SDS011;12802;53.390;-2.328;2022-11-20T01:02:06;7.38;;;3.67;;
24681;SDS011;12802;53.390;-2.328;2022-11-20T01:04:32;10.63;;;3.92;;
24681;SDS011;12802;53.390;-2.328;2022-11-20T01:06:57;8.38;;;3.88;;
24681;SDS011;12802;53.390;-2.328;2022-11-20T01:09:23;6.55;;;3.42;;
24681;SDS011;12802;53.390;-2.328;2022-11-20T01:11:49;11.98;;;3.92;;
24681;SDS011;12802;53.390;-2.328;2022-11-20T01:14:16;7.07;;;3.85;;
24681;SDS011;12802;53.390;-2.328;2022-11-20T01:16:44;10.60;;;4.50;;
24681;SDS011;12802;53.390;-2.328;2022-11-20T01:19:19;7.90;;;3.92;;
24681;SDS011;12802;53.390;-2.328;2022-11-20T01:21:49;7.78;;;3.45;;
24681;SDS011;12802;53.390;-2.328;2022-11-20T01:24:18;6.53;;;3.22;;
24681;SDS011;12802;53.390;-2.328;2022-11-20T01:26:46;4.60;;;2.95;;
24681;SDS011;12802;53.390;-2.328;2022-11-20T01:29:15;11.13;;;2.63;;
24681;SDS011;12802;53.390;-2.328;2022-11-20T01:31:43;6.05;;;2.80;;
24681;SDS011;12802;53.390;-2.328;2022-11-20T01:34:11;12.23;;;3.47;;
24681;SDS011;12802;53.390;-2.328;2022-11-20T01:36:39;8.38;;;3.00;;
24681;SDS011;12802;53.390;-2.328;2022-11-20T01:39:14;9.05;;;2.78;;
24681;SDS011;12802;53.390;-2.328;2022-11-20T01:41:42;5.07;;;2.33;;
24681;SDS011;12802;53.390;-2.328;2022-11-20T01:50:03;5.53;;;2.13;;
24681;SDS011;12802;53.390;-2.328;2022-11-20T01:52:45;3.67;;;2.40;;
24681;SDS011;12802;53.390;-2.328;2022-11-20T01:55:14;6.63;;;2.72;;
24681;SDS011;12802;53.390;-2.328;2022-11-20T01:57:47;13.40;;;2.40;;
24681;SDS011;12802;53.390;-2.328;2022-11-20T02:00:16;5.85;;;2.15;;
24681;SDS011;12802;53.390;-2.328;2022-11-20T02:05:19;6.80;;;1.98;;
24681;SDS011;12802;53.390;-2.328;2022-11-20T02:08:07;5.32;;;1.77;;
24681;SDS011;12802;53.390;-2.328;2022-11-20T02:10:33;6.28;;;2.42;;
24681;SDS011;12802;53.390;-2.328;2022-11-20T02:12:59;2.15;;;1.38;;
24681;SDS011;12802;53.390;-2.328;2022-11-20T02:15:43;5.72;;;2.42;;
24681;SDS011;12802;53.390;-2.328;2022-11-20T02:18:10;4.60;;;1.85;;
24681;SDS011;12802;53.390;-2.328;2022-11-20T02:20:40;2.60;;;1.67;;
24681;SDS011;12802;53.390;-2.328;2022-11-20T02:23:11;6.07;;;1.30;;
24681;SDS011;12802;53.390;-2.328;2022-11-20T02:25:42;2.67;;;1.33;;
24681;SDS011;12802;53.390;-2.328;2022-11-20T02:28:08;3.50;;;1.52;;
24681;SDS011;12802;53.390;-2.328;2022-11-20T02:30:35;2.88;;;1.88;;
24681;SDS011;12802;53.390;-2.328;2022-11-20T02:33:01;6.05;;;1.95;;
24681;SDS011;12802;53.390;-2.328;2022-11-20T02:37:53;4.53;;;1.88;;
24681;SDS011;12802;53.390;-2.328;2022-11-20T02:40:20;3.60;;;1.77;;
24681;SDS011;12802;53.390;-2.328;2022-11-20T02:42:47;4.45;;;2.60;;
24681;SDS011;12802;53.390;-2.328;2022-11-20T02:45:12;4.70;;;2.28;;
24681;SDS011;12802;53.390;-2.328;2022-11-20T02:47:38;4.65;;;1.70;;
24681;SDS011;12802;53.390;-2.328;2022-11-20T02:50:04;4.20;;;2.30;;
24681;SDS011;12802;53.390;-2.328;2022-11-20T02:52:31;3.78;;;2.35;;
24681;SDS011;12802;53.390;-2.328;2022-11-20T02:54:57;3.60;;;2.25;;
24681;SDS011;12802;53.390;-2.328;2022-11-20T02:57:22;7.53;;;2.83;;
24681;SDS011;12802;53.390;-2.328;2022-11-20T02:59:48;6.80;;;2.42;;
24681;SDS011;12802;53.390;-2.328;2022-11-20T03:02:14;3.13;;;1.83;;
24681;SDS011;12802;53.390;-2.328;2022-11-20T03:04:40;6.32;;;2.92;;
24681;SDS011;12802;53.390;-2.328;2022-11-20T03:07:05;7.82;;;2.13;;
24681;SDS011;12802;53.390;-2.328;2022-11-20T03:09:33;8.13;;;2.63;;
24681;SDS011;12802;53.390;-2.328;2022-11-20T03:11:58;7.13;;;2.25;;
24681;SDS011;12802;53.390;-2.328;2022-11-20T03:14:24;3.17;;;2.13;;
24681;SDS011;12802;53.390;-2.328;2022-11-20T03:16:50;6.25;;;2.55;;
24681;SDS011;12802;53.390;-2.328;2022-11-20T03:19:16;8.35;;;1.55;;
24681;SDS011;12802;53.390;-2.328;2022-11-20T03:21:41;2.53;;;1.92;;
24681;SDS011;12802;53.390;-2.328;2022-11-20T03:24:07;5.18;;;2.15;;
24681;SDS011;12802;53.390;-2.328;2022-11-20T03:26:33;4.63;;;1.92;;
24681;SDS011;12802;53.390;-2.328;2022-11-20T03:29:00;6.47;;;2.33;;
24681;SDS011;12802;53.390;-2.328;2022-11-20T03:31:28;5.38;;;2.60;;
24681;SDS011;12802;53.390;-2.328;2022-11-20T03:34:02;8.40;;;2.08;;
24681;SDS011;12802;53.390;-2.328;2022-11-20T03:36:29;2.97;;;1.58;;
24681;SDS011;12802;53.390;-2.328;2022-11-20T03:38:56;4.20;;;2.58;;
24681;SDS011;12802;53.390;-2.328;2022-11-20T03:41:23;3.15;;;1.63;;
24681;SDS011;12802;53.390;-2.328;2022-11-20T03:43:51;3.63;;;2.20;;
24681;SDS011;12802;53.390;-2.328;2022-11-20T03:46:18;4.50;;;2.15;;
24681;SDS011;12802;53.390;-2.328;2022-11-20T03:48:44;6.40;;;2.10;;
24681;SDS011;12802;53.390;-2.328;2022-11-20T03:53:38;4.05;;;2.03;;
24681;SDS011;12802;53.390;-2.328;2022-11-20T03:56:08;3.45;;;1.65;;
24681;SDS011;12802;53.390;-2.328;2022-11-20T03:58:35;12.70;;;2.17;;
24681;SDS011;12802;53.390;-2.328;2022-11-20T04:01:44;2.70;;;1.95;;
24681;SDS011;12802;53.390;-2.328;2022-11-20T04:03:53;3.88;;;1.83;;
24681;SDS011;12802;53.390;-2.328;2022-11-20T04:06:21;4.32;;;2.28;;
24681;SDS011;12802;53.390;-2.328;2022-11-20T04:08:55;6.80;;;2.25;;
24681;SDS011;12802;53.390;-2.328;2022-11-20T04:11:25;6.60;;;2.50;;
24681;SDS011;12802;53.390;-2.328;2022-11-20T04:13:55;4.78;;;2.85;;
24681;SDS011;12802;53.390;-2.328;2022-11-20T04:16:23;6.57;;;2.92;;
24681;SDS011;12802;53.390;-2.328;2022-11-20T04:18:53;5.93;;;2.38;;
24681;SDS011;12802;53.390;-2.328;2022-11-20T04:21:21;4.43;;;2.20;;
24681;SDS011;12802;53.390;-2.328;2022-11-20T04:23:47;3.92;;;2.40;;
24681;SDS011;12802;53.390;-2.328;2022-11-20T04:26:14;8.30;;;3.30;;
24681;SDS011;12802;53.390;-2.328;2022-11-20T04:28:39;4.18;;;2.45;;
24681;SDS011;12802;53.390;-2.328;2022-11-20T04:31:06;7.22;;;2.58;;
24681;SDS011;12802;53.390;-2.328;2022-11-20T04:33:35;5.47;;;2.92;;
24681;SDS011;12802;53.390;-2.328;2022-11-20T04:36:05;10.02;;;3.33;;
24681;SDS011;12802;53.390;-2.328;2022-11-20T04:38:35;7.72;;;2.88;;
24681;SDS011;12802;53.390;-2.328;2022-11-20T04:41:01;14.00;;;3.15;;
24681;SDS011;12802;53.390;-2.328;2022-11-20T04:43:32;10.93;;;3.25;;
24681;SDS011;12802;53.390;-2.328;2022-11-20T04:45:59;5.63;;;3.67;;
24681;SDS011;12802;53.390;-2.328;2022-11-20T04:48:26;4.85;;;3.13;;
24681;SDS011;12802;53.390;-2.328;2022-11-20T04:50:53;8.35;;;3.05;;
24681;SDS011;12802;53.390;-2.328;2022-11-20T04:53:19;4.78;;;3.15;;
24681;SDS011;12802;53.390;-2.328;2022-11-20T04:55:46;4.38;;;3.08;;
24681;SDS011;12802;53.390;-2.328;2022-11-20T04:58:12;5.40;;;3.10;;
24681;SDS011;12802;53.390;-2.328;2022-11-20T05:00:38;9.10;;;2.75;;
24681;SDS011;12802;53.390;-2.328;2022-11-20T05:03:04;5.30;;;2.95;;
24681;SDS011;12802;53.390;-2.328;2022-11-20T05:05:30;4.50;;;3.38;;
24681;SDS011;12802;53.390;-2.328;2022-11-20T05:07:57;7.43;;;3.47;;
24681;SDS011;12802;53.390;-2.328;2022-11-20T05:10:23;4.85;;;3.35;;
24681;SDS011;12802;53.390;-2.328;2022-11-20T05:12:52;4.65;;;3.25;;
24681;SDS011;12802;53.390;-2.328;2022-11-20T05:15:18;5.25;;;2.97;;
24681;SDS011;12802;53.390;-2.328;2022-11-20T05:17:47;8.77;;;3.83;;
24681;SDS011;12802;53.390;-2.328;2022-11-20T05:20:14;9.65;;;3.05;;
24681;SDS011;12802;53.390;-2.328;2022-11-20T05:22:40;5.38;;;3.10;;
24681;SDS011;12802;53.390;-2.328;2022-11-20T05:25:06;5.70;;;3.33;;
24681;SDS011;12802;53.390;-2.328;2022-11-20T05:27:32;6.55;;;3.58;;
24681;SDS011;12802;53.390;-2.328;2022-11-20T05:29:57;5.40;;;3.05;;
24681;SDS011;12802;53.390;-2.328;2022-11-20T05:32:23;8.40;;;3.33;;
24681;SDS011;12802;53.390;-2.328;2022-11-20T05:34:51;10.50;;;3.35;;
24681;SDS011;12802;53.390;-2.328;2022-11-20T05:37:17;7.78;;;3.70;;
24681;SDS011;12802;53.390;-2.328;2022-11-20T05:39:43;6.28;;;3.58;;
24681;SDS011;12802;53.390;-2.328;2022-11-20T05:42:08;9.63;;;3.53;;
24681;SDS011;12802;53.390;-2.328;2022-11-20T05:44:53;5.75;;;3.83;;
24681;SDS011;12802;53.390;-2.328;2022-11-20T05:47:18;5.65;;;4.22;;
24681;SDS011;12802;53.390;-2.328;2022-11-20T05:49:44;4.78;;;3.10;;
24681;SDS011;12802;53.390;-2.328;2022-11-20T05:52:10;6.32;;;3.35;;
24681;SDS011;12802;53.390;-2.328;2022-11-20T05:54:36;8.00;;;3.35;;
24681;SDS011;12802;53.390;-2.328;2022-11-20T05:57:01;6.25;;;3.72;;
24681;SDS011;12802;53.390;-2.328;2022-11-20T05:59:27;5.47;;;3.13;;
24681;SDS011;12802;53.390;-2.328;2022-11-20T06:01:53;6.43;;;3.83;;
24681;SDS011;12802;53.390;-2.328;2022-11-20T06:04:19;7.07;;;4.13;;
24681;SDS011;12802;53.390;-2.328;2022-11-20T06:06:44;6.85;;;3.65;;
24681;SDS011;12802;53.390;-2.328;2022-11-20T06:09:10;12.68;;;4.07;;
24681;SDS011;12802;53.390;-2.328;2022-11-20T06:11:36;5.53;;;3.78;;
24681;SDS011;12802;53.390;-2.328;2022-11-20T06:14:01;8.85;;;3.75;;
24681;SDS011;12802;53.390;-2.328;2022-11-20T06:16:27;9.13;;;3.92;;
24681;SDS011;12802;53.390;-2.328;2022-11-20T06:18:53;4.57;;;3.50;;
24681;SDS011;12802;53.390;-2.328;2022-11-20T06:21:19;9.40;;;4.07;;
24681;SDS011;12802;53.390;-2.328;2022-11-20T06:23:46;4.15;;;3.33;;
24681;SDS011;12802;53.390;-2.328;2022-11-20T06:26:14;5.28;;;3.53;;
24681;SDS011;12802;53.390;-2.328;2022-11-20T06:28:44;6.30;;;3.55;;
24681;SDS011;12802;53.390;-2.328;2022-11-20T06:31:12;5.65;;;3.38;;
24681;SDS011;12802;53.390;-2.328;2022-11-20T06:33:40;8.13;;;3.33;;
24681;SDS011;12802;53.390;-2.328;2022-11-20T06:36:06;8.02;;;3.78;;
24681;SDS011;12802;53.390;-2.328;2022-11-20T06:38:32;4.80;;;2.90;;
24681;SDS011;12802;53.390;-2.328;2022-11-20T06:40:58;7.50;;;4.00;;
24681;SDS011;12802;53.390;-2.328;2022-11-20T06:43:24;6.68;;;3.65;;
24681;SDS011;12802;53.390;-2.328;2022-11-20T06:45:54;6.50;;;4.38;;
24681;SDS011;12802;53.390;-2.328;2022-11-20T06:48:20;7.43;;;4.38;;
24681;SDS011;12802;53.390;-2.328;2022-11-20T06:50:47;5.88;;;3.42;;
24681;SDS011;12802;53.390;-2.328;2022-11-20T06:53:13;5.47;;;3.63;;
24681;SDS011;12802;53.390;-2.328;2022-11-20T06:55:41;9.30;;;4.53;;
24681;SDS011;12802;53.390;-2.328;2022-11-20T06:58:09;7.20;;;4.18;;
24681;SDS011;12802;53.390;-2.328;2022-11-20T07:00:34;12.07;;;4.80;;
24681;SDS011;12802;53.390;-2.328;2022-11-20T07:03:03;5.65;;;3.83;;
24681;SDS011;12802;53.390;-2.328;2022-11-20T07:05:34;7.38;;;4.07;;
24681;SDS011;12802;53.390;-2.328;2022-11-20T07:08:00;6.38;;;3.88;;
24681;SDS011;12802;53.390;-2.328;2022-11-20T07:10:27;15.07;;;5.28;;
24681;SDS011;12802;53.390;-2.328;2022-11-20T07:12:53;9.10;;;4.35;;
24681;SDS011;12802;53.390;-2.328;2022-11-20T07:15:19;8.55;;;3.13;;
24681;SDS011;12802;53.390;-2.328;2022-11-20T07:17:46;13.20;;;4.40;;
24681;SDS011;12802;53.390;-2.328;2022-11-20T07:20:12;5.40;;;3.13;;
24681;SDS011;12802;53.390;-2.328;2022-11-20T07:22:39;12.50;;;3.63;;
24681;SDS011;12802;53.390;-2.328;2022-11-20T07:25:05;14.93;;;3.38;;
24681;SDS011;12802;53.390;-2.328;2022-11-20T07:27:32;21.25;;;3.25;;
24681;SDS011;12802;53.390;-2.328;2022-11-20T07:29:58;9.63;;;3.38;;
24681;SDS011;12802;53.390;-2.328;2022-11-20T07:32:24;21.42;;;3.47;;
24681;SDS011;12802;53.390;-2.328;2022-11-20T07:34:50;13.90;;;4.18;;
24681;SDS011;12802;53.390;-2.328;2022-11-20T07:37:16;10.48;;;3.70;;
24681;SDS011;12802;53.390;-2.328;2022-11-20T07:39:42;11.77;;;3.35;;
24681;SDS011;12802;53.390;-2.328;2022-11-20T07:42:08;15.57;;;4.18;;
24681;SDS011;12802;53.390;-2.328;2022-11-20T07:44:36;8.82;;;3.72;;
24681;SDS011;12802;53.390;-2.328;2022-11-20T07:47:01;12.85;;;3.17;;
24681;SDS011;12802;53.390;-2.328;2022-11-20T07:49:27;9.52;;;3.90;;
24681;SDS011;12802;53.390;-2.328;2022-11-20T07:51:53;16.42;;;3.72;;
24681;SDS011;12802;53.390;-2.328;2022-11-20T07:54:19;15.48;;;4.85;;
24681;SDS011;12802;53.390;-2.328;2022-11-20T07:56:45;13.65;;;3.20;;
24681;SDS011;12802;53.390;-2.328;2022-11-20T07:59:12;18.98;;;4.65;;
24681;SDS011;12802;53.390;-2.328;2022-11-20T08:01:38;9.20;;;3.65;;
24681;SDS011;12802;53.390;-2.328;2022-11-20T08:04:04;15.77;;;3.83;;
24681;SDS011;12802;53.390;-2.328;2022-11-20T08:06:30;12.50;;;4.03;;
24681;SDS011;12802;53.390;-2.328;2022-11-20T08:08:56;18.05;;;3.30;;
24681;SDS011;12802;53.390;-2.328;2022-11-20T08:11:22;13.52;;;3.67;;
24681;SDS011;12802;53.390;-2.328;2022-11-20T08:14:06;15.80;;;3.60;;
24681;SDS011;12802;53.390;-2.328;2022-11-20T08:16:48;16.45;;;4.60;;
24681;SDS011;12802;53.390;-2.328;2022-11-20T08:19:15;14.63;;;4.50;;
24681;SDS011;12802;53.390;-2.328;2022-11-20T08:21:42;13.88;;;3.75;;
24681;SDS011;12802;53.390;-2.328;2022-11-20T08:24:09;13.15;;;3.85;;
24681;SDS011;12802;53.390;-2.328;2022-11-20T08:26:35;14.35;;;4.15;;
24681;SDS011;12802;53.390;-2.328;2022-11-20T08:29:02;29.77;;;4.68;;
24681;SDS011;12802;53.390;-2.328;2022-11-20T08:31:29;20.83;;;3.95;;
24681;SDS011;12802;53.390;-2.328;2022-11-20T08:33:55;13.07;;;3.95;;
24681;SDS011;12802;53.390;-2.328;2022-11-20T08:36:21;9.98;;;3.72;;
24681;SDS011;12802;53.390;-2.328;2022-11-20T08:38:48;10.57;;;3.25;;
24681;SDS011;12802;53.390;-2.328;2022-11-20T08:41:15;13.48;;;3.60;;
24681;SDS011;12802;53.390;-2.328;2022-11-20T08:43:54;14.65;;;4.43;;
24681;SDS011;12802;53.390;-2.328;2022-11-20T08:46:20;16.38;;;3.63;;
24681;SDS011;12802;53.390;-2.328;2022-11-20T08:48:47;11.85;;;4.05;;
24681;SDS011;12802;53.390;-2.328;2022-11-20T08:51:13;9.25;;;3.58;;
24681;SDS011;12802;53.390;-2.328;2022-11-20T08:53:39;11.23;;;3.05;;
24681;SDS011;12802;53.390;-2.328;2022-11-20T08:56:05;10.68;;;3.60;;
24681;SDS011;12802;53.390;-2.328;2022-11-20T08:58:31;10.63;;;3.15;;
24681;SDS011;12802;53.390;-2.328;2022-11-20T09:00:57;17.33;;;3.42;;
24681;SDS011;12802;53.390;-2.328;2022-11-20T09:03:23;6.72;;;2.65;;
24681;SDS011;12802;53.390;-2.328;2022-11-20T09:05:56;11.73;;;3.15;;
24681;SDS011;12802;53.390;-2.328;2022-11-20T09:08:22;8.77;;;3.08;;
24681;SDS011;12802;53.390;-2.328;2022-11-20T09:10:51;12.55;;;2.92;;
24681;SDS011;12802;53.390;-2.328;2022-11-20T09:13:17;16.90;;;2.97;;
24681;SDS011;12802;53.390;-2.328;2022-11-20T09:15:43;11.60;;;2.95;;
24681;SDS011;12802;53.390;-2.328;2022-11-20T09:18:08;12.52;;;2.78;;
24681;SDS011;12802;53.390;-2.328;2022-11-20T09:20:34;8.52;;;3.88;;
24681;SDS011;12802;53.390;-2.328;2022-11-20T09:23:00;18.58;;;4.07;;
24681;SDS011;12802;53.390;-2.328;2022-11-20T09:25:26;11.85;;;3.33;;
24681;SDS011;12802;53.390;-2.328;2022-11-20T09:27:55;15.77;;;4.30;;
24681;SDS011;12802;53.390;-2.328;2022-11-20T09:30:22;15.80;;;3.70;;
24681;SDS011;12802;53.390;-2.328;2022-11-20T09:32:48;4.50;;;2.80;;
24681;SDS011;12802;53.390;-2.328;2022-11-20T09:35:14;14.27;;;3.53;;
24681;SDS011;12802;53.390;-2.328;2022-11-20T09:37:40;10.32;;;3.67;;
24681;SDS011;12802;53.390;-2.328;2022-11-20T09:40:06;11.88;;;3.17;;
24681;SDS011;12802;53.390;-2.328;2022-11-20T09:42:56;14.65;;;3.60;;
24681;SDS011;12802;53.390;-2.328;2022-11-20T09:45:48;21.80;;;3.50;;
24681;SDS011;12802;53.390;-2.328;2022-11-20T09:56:25;10.38;;;3.00;;
24681;SDS011;12802;53.390;-2.328;2022-11-20T09:58:52;13.68;;;3.15;;
24681;SDS011;12802;53.390;-2.328;2022-11-20T10:01:21;20.98;;;3.28;;
24681;SDS011;12802;53.390;-2.328;2022-11-20T10:04:13;7.70;;;3.20;;
24681;SDS011;12802;53.390;-2.328;2022-11-20T10:06:52;13.05;;;3.38;;
24681;SDS011;12802;53.390;-2.328;2022-11-20T10:09:34;10.35;;;3.03;;
24681;SDS011;12802;53.390;-2.328;2022-11-20T10:17:31;11.00;;;2.88;;
24681;SDS011;12802;53.390;-2.328;2022-11-20T10:20:27;16.95;;;3.53;;
24681;SDS011;12802;53.390;-2.328;2022-11-20T10:31:08;7.25;;;2.47;;
24681;SDS011;12802;53.390;-2.328;2022-11-20T10:33:41;4.97;;;2.38;;
24681;SDS011;12802;53.390;-2.328;2022-11-20T10:38:50;10.23;;;2.80;;
24681;SDS011;12802;53.390;-2.328;2022-11-20T10:41:21;8.15;;;2.28;;
24681;SDS011;12802;53.390;-2.328;2022-11-20T10:46:43;12.13;;;3.10;;
24681;SDS011;12802;53.390;-2.328;2022-11-20T10:49:11;16.35;;;2.50;;
24681;SDS011;12802;53.390;-2.328;2022-11-20T10:51:52;6.95;;;2.95;;
24681;SDS011;12802;53.390;-2.328;2022-11-20T10:58:00;8.68;;;3.03;;
24681;SDS011;12802;53.390;-2.328;2022-11-20T11:00:35;13.57;;;2.95;;
24681;SDS011;12802;53.390;-2.328;2022-11-20T11:03:01;10.52;;;2.60;;
24681;SDS011;12802;53.390;-2.328;2022-11-20T11:08:09;13.35;;;2.95;;
24681;SDS011;12802;53.390;-2.328;2022-11-20T11:13:20;6.53;;;2.88;;
24681;SDS011;12802;53.390;-2.328;2022-11-20T11:15:48;9.00;;;2.83;;
24681;SDS011;12802;53.390;-2.328;2022-11-20T11:18:30;14.38;;;2.55;;
24681;SDS011;12802;53.390;-2.328;2022-11-20T11:20:58;12.40;;;2.78;;
24681;SDS011;12802;53.390;-2.328;2022-11-20T11:23:39;20.27;;;3.55;;
24681;SDS011;12802;53.390;-2.328;2022-11-20T11:26:20;8.35;;;3.42;;
24681;SDS011;12802;53.390;-2.328;2022-11-20T11:28:59;11.00;;;2.42;;
24681;SDS011;12802;53.390;-2.328;2022-11-20T11:31:27;16.67;;;2.78;;
24681;SDS011;12802;53.390;-2.328;2022-11-20T11:34:06;9.63;;;2.72;;
24681;SDS011;12802;53.390;-2.328;2022-11-20T11:39:03;18.83;;;3.60;;
24681;SDS011;12802;53.390;-2.328;2022-11-20T11:41:31;11.77;;;3.67;;
24681;SDS011;12802;53.390;-2.328;2022-11-20T11:44:14;5.35;;;2.30;;
24681;SDS011;12802;53.390;-2.328;2022-11-20T11:47:26;6.75;;;2.28;;
24681;SDS011;12802;53.390;-2.328;2022-11-20T11:55:44;9.43;;;2.47;;
24681;SDS011;12802;53.390;-2.328;2022-11-20T11:58:16;10.27;;;3.05;;
24681;SDS011;12802;53.390;-2.328;2022-11-20T12:01:45;14.85;;;3.22;;
24681;SDS011;12802;53.390;-2.328;2022-11-20T12:03:42;8.43;;;2.63;;
24681;SDS011;12802;53.390;-2.328;2022-11-20T12:06:13;7.38;;;3.00;;
24681;SDS011;12802;53.390;-2.328;2022-11-20T12:08:51;11.30;;;3.40;;
24681;SDS011;12802;53.390;-2.328;2022-11-20T12:14:14;5.65;;;2.92;;
24681;SDS011;12802;53.390;-2.328;2022-11-20T12:16:49;11.70;;;3.22;;
24681;SDS011;12802;53.390;-2.328;2022-11-20T12:19:15;14.38;;;2.47;;
24681;SDS011;12802;53.390;-2.328;2022-11-20T12:21:56;8.10;;;2.45;;
24681;SDS011;12802;53.390;-2.328;2022-11-20T12:27:05;9.57;;;2.75;;
24681;SDS011;12802;53.390;-2.328;2022-11-20T12:35:30;8.80;;;3.33;;
24681;SDS011;12802;53.390;-2.328;2022-11-20T12:37:53;12.15;;;2.45;;
24681;SDS011;12802;53.390;-2.328;2022-11-20T12:43:26;9.70;;;2.53;;
24681;SDS011;12802;53.390;-2.328;2022-11-20T12:51:34;9.02;;;2.90;;
24681;SDS011;12802;53.390;-2.328;2022-11-20T12:57:23;13.95;;;2.15;;
24681;SDS011;12802;53.390;-2.328;2022-11-20T13:08:15;4.75;;;1.98;;
24681;SDS011;12802;53.390;-2.328;2022-11-20T13:18:45;10.02;;;2.55;;
24681;SDS011;12802;53.390;-2.328;2022-11-20T13:24:06;11.45;;;2.63;;
24681;SDS011;12802;53.390;-2.328;2022-11-20T13:26:32;12.48;;;2.75;;
24681;SDS011;12802;53.390;-2.328;2022-11-20T13:29:08;8.25;;;1.90;;
24681;SDS011;12802;53.390;-2.328;2022-11-20T13:31:45;14.88;;;3.15;;
24681;SDS011;12802;53.390;-2.328;2022-11-20T13:34:14;8.38;;;2.78;;
24681;SDS011;12802;53.390;-2.328;2022-11-20T13:36:52;9.50;;;3.35;;
24681;SDS011;12802;53.390;-2.328;2022-11-20T13:44:47;9.50;;;2.38;;
24681;SDS011;12802;53.390;-2.328;2022-11-20T13:47:20;11.13;;;3.08;;
24681;SDS011;12802;53.390;-2.328;2022-11-20T13:49:53;5.15;;;2.80;;
24681;SDS011;12802;53.390;-2.328;2022-11-20T13:52:44;9.25;;;2.42;;
24681;SDS011;12802;53.390;-2.328;2022-11-20T13:55:29;6.30;;;2.15;;
24681;SDS011;12802;53.390;-2.328;2022-11-20T14:00:58;7.75;;;2.55;;
24681;SDS011;12802;53.390;-2.328;2022-11-20T14:03:33;8.35;;;2.90;;
24681;SDS011;12802;53.390;-2.328;2022-11-20T14:06:04;13.07;;;2.78;;
24681;SDS011;12802;53.390;-2.328;2022-11-20T14:08:48;17.05;;;3.47;;
24681;SDS011;12802;53.390;-2.328;2022-11-20T14:11:27;14.60;;;3.15;;
24681;SDS011;12802;53.390;-2.328;2022-11-20T14:16:41;11.05;;;3.28;;
24681;SDS011;12802;53.390;-2.328;2022-11-20T14:19:30;6.68;;;2.08;;
24681;SDS011;12802;53.390;-2.328;2022-11-20T14:24:48;7.43;;;1.58;;
24681;SDS011;12802;53.390;-2.328;2022-11-20T14:27:18;8.73;;;2.15;;
24681;SDS011;12802;53.390;-2.328;2022-11-20T14:29:46;3.90;;;1.73;;
24681;SDS011;12802;53.390;-2.328;2022-11-20T14:32:15;11.80;;;1.38;;
24681;SDS011;12802;53.390;-2.328;2022-11-20T14:34:43;4.40;;;1.85;;
24681;SDS011;12802;53.390;-2.328;2022-11-20T14:37:12;4.32;;;1.35;;
24681;SDS011;12802;53.390;-2.328;2022-11-20T14:39:48;14.77;;;1.67;;
24681;SDS011;12802;53.390;-2.328;2022-11-20T14:42:21;6.47;;;1.50;;
24681;SDS011;12802;53.390;-2.328;2022-11-20T14:44:49;5.03;;;0.90;;
24681;SDS011;12802;53.390;-2.328;2022-11-20T14:47:20;2.70;;;1.05;;
24681;SDS011;12802;53.390;-2.328;2022-11-20T14:49:48;5.70;;;1.40;;
24681;SDS011;12802;53.390;-2.328;2022-11-20T14:52:16;2.15;;;0.80;;
24681;SDS011;12802;53.390;-2.328;2022-11-20T14:54:48;6.17;;;2.47;;
24681;SDS011;12802;53.390;-2.328;2022-11-20T14:57:25;5.57;;;1.48;;
24681;SDS011;12802;53.390;-2.328;2022-11-20T14:59:51;5.75;;;1.90;;
24681;SDS011;12802;53.390;-2.328;2022-11-20T15:02:29;3.95;;;1.52;;
24681;SDS011;12802;53.390;-2.328;2022-11-20T15:04:59;5.40;;;1.73;;
24681;SDS011;12802;53.390;-2.328;2022-11-20T15:07:34;8.20;;;1.40;;
24681;SDS011;12802;53.390;-2.328;2022-11-20T15:10:03;3.08;;;1.20;;
24681;SDS011;12802;53.390;-2.328;2022-11-20T15:12:31;2.72;;;1.05;;
24681;SDS011;12802;53.390;-2.328;2022-11-20T15:15:02;6.07;;;1.33;;
24681;SDS011;12802;53.390;-2.328;2022-11-20T15:17:30;8.30;;;1.60;;
24681;SDS011;12802;53.390;-2.328;2022-11-20T15:19:57;2.78;;;1.20;;
24681;SDS011;12802;53.390;-2.328;2022-11-20T15:22:25;2.60;;;1.08;;
24681;SDS011;12802;53.390;-2.328;2022-11-20T15:24:50;1.75;;;0.55;;
24681;SDS011;12802;53.390;-2.328;2022-11-20T15:27:16;0.98;;;0.60;;
24681;SDS011;12802;53.390;-2.328;2022-11-20T15:29:42;1.55;;;0.57;;
24681;SDS011;12802;53.390;-2.328;2022-11-20T15:32:08;3.03;;;0.65;;
24681;SDS011;12802;53.390;-2.328;2022-11-20T15:34:34;2.90;;;0.75;;
24681;SDS011;12802;53.390;-2.328;2022-11-20T15:37:00;1.40;;;0.65;;
24681;SDS011;12802;53.390;-2.328;2022-11-20T15:39:25;0.70;;;0.40;;
24681;SDS011;12802;53.390;-2.328;2022-11-20T15:41:51;2.58;;;0.82;;
24681;SDS011;12802;53.390;-2.328;2022-11-20T15:44:17;3.08;;;1.05;;
24681;SDS011;12802;53.390;-2.328;2022-11-20T15:46:43;7.57;;;1.00;;
24681;SDS011;12802;53.390;-2.328;2022-11-20T15:49:12;4.68;;;1.73;;
24681;SDS011;12802;53.390;-2.328;2022-11-20T15:51:40;2.08;;;1.80;;
24681;SDS011;12802;53.390;-2.328;2022-11-20T15:56:49;6.50;;;2.42;;
24681;SDS011;12802;53.390;-2.328;2022-11-20T15:59:17;6.32;;;1.38;;
24681;SDS011;12802;53.390;-2.328;2022-11-20T16:01:43;2.25;;;0.90;;
24681;SDS011;12802;53.390;-2.328;2022-11-20T16:04:15;1.13;;;0.70;;
24681;SDS011;12802;53.390;-2.328;2022-11-20T16:06:41;4.88;;;1.10;;
24681;SDS011;12802;53.390;-2.328;2022-11-20T16:09:08;5.10;;;1.52;;
24681;SDS011;12802;53.390;-2.328;2022-11-20T16:11:34;7.70;;;1.42;;
24681;SDS011;12802;53.390;-2.328;2022-11-20T16:14:03;4.38;;;1.88;;
24681;SDS011;12802;53.390;-2.328;2022-11-20T16:16:49;1.00;;;0.47;;
24681;SDS011;12802;53.390;-2.328;2022-11-20T16:19:14;2.22;;;1.00;;
24681;SDS011;12802;53.390;-2.328;2022-11-20T16:21:41;1.52;;;0.65;;
24681;SDS011;12802;53.390;-2.328;2022-11-20T16:24:08;1.88;;;1.00;;
24681;SDS011;12802;53.390;-2.328;2022-11-20T16:26:36;4.33;;;1.20;;
24681;SDS011;12802;53.390;-2.328;2022-11-20T16:29:03;3.92;;;0.85;;
24681;SDS011;12802;53.390;-2.328;2022-11-20T16:31:30;7.78;;;1.38;;
24681;SDS011;12802;53.390;-2.328;2022-11-20T16:33:57;2.78;;;1.33;;
24681;SDS011;12802;53.390;-2.328;2022-11-20T16:36:24;3.30;;;1.25;;
24681;SDS011;12802;53.390;-2.328;2022-11-20T16:38:53;2.47;;;1.65;;
24681;SDS011;12802;53.390;-2.328;2022-11-20T16:41:19;2.63;;;1.75;;